Time;durP1;ratioP1;P1;durP2;ratioP2;P2;SDS_P1;SDS_P2;PMS_P1;PMS_P2;Temp;Humidity;BMP_temperature;BMP_pressure;BME280_temperature;BME280_humidity;BME280_pressure;Samples;Min_cycle;Max_cycle;Signal;HPM_P1;HPM_P2
2022/12/01 00:01:14;;;;;;;43.00;21.20;;;16.10;67.20;;;;;;5082105;28;20442;-79
2022/12/01 00:03:42;;;;;;;38.00;20.90;;;16.10;67.10;;;;;;5075280;28;20445;-79
2022/12/01 00:06:11;;;;;;;36.20;20.90;;;16.10;67.00;;;;;;5081030;28;20475;-79
2022/12/01 00:10:24;;;;;;;39.30;20.40;;;16.10;67.00;;;;;;5078190;28;20450;-79
2022/12/01 00:11:28;;;;;;;38.03;20.80;;;16.10;67.10;;;;;;5089107;28;20466;-78
2022/12/01 00:13:56;;;;;;;40.73;20.07;;;16.00;67.20;;;;;;5079506;28;20449;-79
2022/12/01 00:16:24;;;;;;;36.93;20.30;;;16.10;67.20;;;;;;5085666;28;20465;-78
2022/12/01 00:18:53;;;;;;;39.47;21.30;;;16.10;67.10;;;;;;5082088;28;20464;-79
2022/12/01 00:21:22;;;;;;;37.13;19.87;;;16.10;67.20;;;;;;5081619;28;20449;-79
2022/12/01 00:23:52;;;;;;;37.63;20.57;;;16.00;67.10;;;;;;5068547;28;20457;-78
2022/12/01 00:26:21;;;;;;;33.97;19.30;;;16.00;67.20;;;;;;5081241;28;20476;-80
2022/12/01 00:28:49;;;;;;;37.10;20.27;;;16.10;67.20;;;;;;5082791;28;20457;-80
2022/12/01 00:31:18;;;;;;;38.17;20.70;;;16.10;67.30;;;;;;5075121;28;20867;-79
2022/12/01 00:33:46;;;;;;;34.93;19.47;;;16.00;67.20;;;;;;5080902;28;20449;-80
2022/12/01 00:36:14;;;;;;;36.90;21.33;;;16.10;67.30;;;;;;5080117;28;20497;-78
2022/12/01 00:38:42;;;;;;;37.93;20.70;;;16.00;67.10;;;;;;5060624;28;20454;-79
2022/12/01 00:41:12;;;;;;;37.73;20.83;;;16.10;67.00;;;;;;5077262;28;20461;-79
2022/12/01 00:43:40;;;;;;;32.47;19.30;;;16.10;67.00;;;;;;5074959;28;20464;-79
2022/12/01 00:46:08;;;;;;;36.07;20.10;;;16.10;67.80;;;;;;5072851;28;20483;-79
2022/12/01 00:48:36;;;;;;;38.90;21.13;;;16.10;67.10;;;;;;5083348;28;20507;-78
2022/12/01 00:51:05;;;;;;;37.27;20.67;;;16.10;66.90;;;;;;5080497;28;20492;-79
2022/12/01 00:53:33;;;;;;;37.60;21.43;;;16.10;67.10;;;;;;5068212;28;20459;-79
2022/12/01 00:56:01;;;;;;;39.43;19.53;;;16.10;67.20;;;;;;5087339;28;20449;-78
2022/12/01 00:58:31;;;;;;;35.47;20.00;;;16.00;67.00;;;;;;5068615;28;20462;-79
2022/12/01 01:00:59;;;;;;;34.50;19.30;;;16.00;67.80;;;;;;5080825;28;20441;-79
2022/12/01 01:03:28;;;;;;;34.33;19.90;;;16.00;67.20;;;;;;5080228;28;20453;-79
2022/12/01 01:05:56;;;;;;;36.50;20.23;;;16.10;67.30;;;;;;5067067;28;20458;-79
2022/12/01 01:08:24;;;;;;;35.20;20.07;;;16.10;67.20;;;;;;5079844;28;20454;-79
2022/12/01 01:10:52;;;;;;;33.43;19.13;;;16.10;67.20;;;;;;5075400;28;20473;-79
2022/12/01 01:13:21;;;;;;;36.50;19.60;;;16.00;67.10;;;;;;5078543;28;20458;-80
2022/12/01 01:15:58;;;;;;;34.17;20.23;;;16.00;67.00;;;;;;5082715;28;20457;-78
2022/12/01 01:18:26;;;;;;;33.43;19.33;;;16.10;67.20;;;;;;5078823;28;20442;-79
2022/12/01 01:20:58;;;;;;;35.23;19.50;;;16.00;67.30;;;;;;5094460;28;20438;-79
2022/12/01 01:23:26;;;;;;;34.63;19.70;;;16.00;67.00;;;;;;5084052;28;20457;-79
2022/12/01 01:25:54;;;;;;;33.73;19.57;;;16.00;67.20;;;;;;5074891;28;20454;-80
2022/12/01 01:28:22;;;;;;;38.30;20.87;;;16.10;67.20;;;;;;5093791;28;20452;-80
2022/12/01 01:30:51;;;;;;;33.20;19.33;;;16.10;67.10;;;;;;5075074;28;20469;-79
2022/12/01 01:33:20;;;;;;;34.60;20.40;;;16.10;67.30;;;;;;5077991;28;20457;-79
2022/12/01 01:35:49;;;;;;;34.50;19.60;;;16.10;67.10;;;;;;5077468;28;20448;-80
2022/12/01 01:38:16;;;;;;;34.10;19.67;;;16.00;66.90;;;;;;5077623;28;20456;-80
2022/12/01 01:40:45;;;;;;;34.70;19.90;;;16.10;66.90;;;;;;5074085;28;20450;-79
2022/12/01 01:43:14;;;;;;;31.30;18.43;;;16.10;67.00;;;;;;5070526;28;20931;-79
2022/12/01 01:45:42;;;;;;;33.90;19.77;;;16.10;67.00;;;;;;5072474;28;20536;-78
2022/12/01 01:48:11;;;;;;;34.60;19.47;;;16.00;66.90;;;;;;5068269;28;20473;-78
2022/12/01 01:50:41;;;;;;;39.13;20.23;;;16.00;67.00;;;;;;5075698;28;20469;-78
2022/12/01 01:53:10;;;;;;;37.10;20.67;;;16.00;67.10;;;;;;5058354;28;20450;-79
2022/12/01 01:55:39;;;;;;;34.30;19.70;;;16.00;67.00;;;;;;5057972;28;20447;-79
2022/12/01 01:58:08;;;;;;;34.03;18.87;;;16.00;67.10;;;;;;5057842;28;20462;-79
2022/12/01 02:00:37;;;;;;;33.80;19.90;;;16.00;66.90;;;;;;5061177;28;20446;-79
2022/12/01 02:03:05;;;;;;;34.00;18.97;;;16.00;66.90;;;;;;5082169;28;20455;-79
2022/12/01 02:05:34;;;;;;;33.60;19.33;;;16.00;67.10;;;;;;5086493;28;20449;-78
2022/12/01 02:08:04;;;;;;;31.30;18.10;;;16.00;67.10;;;;;;5072005;28;20473;-80
2022/12/01 02:10:36;;;;;;;30.60;18.53;;;16.00;67.20;;;;;;5074033;28;20497;-79
2022/12/01 02:13:08;;;;;;;33.17;18.30;;;16.00;67.00;;;;;;5077951;28;20456;-79
2022/12/01 02:15:39;;;;;;;30.80;18.53;;;16.00;67.10;;;;;;5072120;28;20449;-79
2022/12/01 02:18:14;;;;;;;34.87;19.23;;;16.00;67.20;;;;;;5084642;28;20474;-78
2022/12/01 02:20:52;;;;;;;32.93;18.83;;;16.00;67.20;;;;;;5066498;28;20449;-79
2022/12/01 02:23:37;;;;;;;33.53;18.37;;;16.00;67.00;;;;;;5072632;28;20452;-78
2022/12/01 02:26:16;;;;;;;32.37;18.40;;;16.00;67.10;;;;;;5068059;28;20442;-80
2022/12/01 02:28:59;;;;;;;34.20;19.50;;;15.90;67.00;;;;;;5076641;28;20456;-81
2022/12/01 02:31:30;;;;;;;30.93;18.80;;;16.00;67.10;;;;;;5076253;28;20461;-80
2022/12/01 02:33:59;;;;;;;30.47;18.73;;;16.00;66.90;;;;;;5075686;28;20457;-78
2022/12/01 02:36:34;;;;;;;38.63;18.73;;;16.00;67.20;;;;;;5078911;28;21005;-79
2022/12/01 02:42:52;;;;;;;34.20;18.77;;;16.00;67.20;;;;;;5072498;28;20467;-80
2022/12/01 02:45:29;;;;;;;30.37;17.57;;;15.90;67.20;;;;;;5077390;28;20449;-80
2022/12/01 02:48:01;;;;;;;31.93;17.53;;;16.00;67.20;;;;;;5078244;28;21033;-80
2022/12/01 02:50:30;;;;;;;33.80;18.30;;;16.00;67.00;;;;;;5077006;28;20537;-80
2022/12/01 02:52:59;;;;;;;28.97;17.80;;;16.00;67.30;;;;;;5079275;28;20446;-80
2022/12/01 02:55:27;;;;;;;32.90;18.07;;;15.90;67.00;;;;;;5077909;28;20454;-80
2022/12/01 02:57:55;;;;;;;31.87;18.33;;;15.90;67.10;;;;;;5077505;28;20478;-80
2022/12/01 03:00:23;;;;;;;35.53;18.70;;;15.90;67.10;;;;;;5077993;28;20457;-80
2022/12/01 03:03:20;;;;;;;28.87;17.10;;;16.00;67.10;;;;;;5081539;28;20452;-80
2022/12/01 03:05:51;;;;;;;31.13;18.70;;;16.00;67.20;;;;;;5076317;28;20480;-80
2022/12/01 03:08:22;;;;;;;30.87;17.47;;;15.90;67.10;;;;;;5076448;28;20476;-80
2022/12/01 03:10:53;;;;;;;29.90;17.80;;;16.00;67.20;;;;;;5084561;28;20461;-81
2022/12/01 03:13:26;;;;;;;30.00;17.70;;;15.90;67.10;;;;;;5068885;28;20446;-81
2022/12/01 03:16:01;;;;;;;30.50;18.73;;;16.00;67.10;;;;;;5067470;28;20449;-80
2022/12/01 03:18:33;;;;;;;27.70;16.73;;;16.00;67.00;;;;;;5067092;28;20457;-80
2022/12/01 03:21:04;;;;;;;29.40;17.73;;;16.00;66.90;;;;;;5077308;28;20449;-80
2022/12/01 03:23:34;;;;;;;28.80;16.80;;;16.00;67.10;;;;;;5085563;28;20456;-80
2022/12/01 03:26:05;;;;;;;30.40;18.27;;;15.90;66.80;;;;;;5081732;28;20445;-80
2022/12/01 03:28:38;;;;;;;32.80;18.50;;;16.00;67.00;;;;;;5078448;28;20449;-80
2022/12/01 03:31:07;;;;;;;28.60;17.27;;;16.00;67.10;;;;;;5081952;28;20566;-78
2022/12/01 03:33:40;;;;;;;27.97;18.00;;;16.00;67.00;;;;;;5082643;28;20458;-79
2022/12/01 03:36:10;;;;;;;29.80;18.23;;;15.90;66.70;;;;;;5083498;28;20539;-79
2022/12/01 03:38:38;;;;;;;31.40;18.23;;;15.90;66.80;;;;;;5079233;28;20451;-79
2022/12/01 03:41:09;;;;;;;30.17;17.37;;;15.90;67.00;;;;;;5079107;28;20446;-79
2022/12/01 03:43:40;;;;;;;26.97;17.57;;;15.90;66.90;;;;;;5082267;28;20481;-80
2022/12/01 03:46:09;;;;;;;28.07;17.33;;;15.90;66.90;;;;;;5078528;28;20465;-79
2022/12/01 03:48:39;;;;;;;30.60;19.00;;;15.90;66.90;;;;;;5072923;28;20458;-78
2022/12/01 03:51:12;;;;;;;29.37;17.37;;;15.90;66.80;;;;;;5076442;28;20473;-79
2022/12/01 03:53:47;;;;;;;31.97;17.83;;;15.90;66.80;;;;;;5082238;28;20459;-80
2022/12/01 03:56:15;;;;;;;28.10;17.60;;;16.00;66.80;;;;;;5077090;28;20478;-79
2022/12/01 03:58:44;;;;;;;30.33;17.67;;;15.90;66.60;;;;;;5081333;28;20480;-79
2022/12/01 04:01:12;;;;;;;28.60;18.17;;;15.90;66.90;;;;;;5080949;28;20514;-80
2022/12/01 04:03:41;;;;;;;29.43;18.03;;;15.90;66.80;;;;;;5079614;28;20460;-79
2022/12/01 04:06:09;;;;;;;29.20;17.90;;;16.00;67.00;;;;;;5078442;28;20492;-79
2022/12/01 04:08:37;;;;;;;27.67;16.97;;;16.00;67.00;;;;;;5079834;28;20449;-79
2022/12/01 04:12:28;;;;;;;27.97;16.33;;;15.90;66.80;;;;;;5084250;28;20452;-80
2022/12/01 04:13:58;;;;;;;27.10;16.40;;;15.90;66.70;;;;;;5087081;28;20456;-80
2022/12/01 04:16:26;;;;;;;27.03;16.50;;;15.90;66.80;;;;;;5085466;28;20523;-78
2022/12/01 04:18:56;;;;;;;31.40;16.83;;;15.90;66.80;;;;;;5079556;28;20458;-79
2022/12/01 04:21:25;;;;;;;30.10;18.47;;;15.90;66.70;;;;;;5075251;28;20449;-79
2022/12/01 04:24:02;;;;;;;27.00;17.33;;;15.90;66.50;;;;;;5077725;28;20451;-79
2022/12/01 04:26:32;;;;;;;31.10;17.87;;;15.90;66.90;;;;;;5069561;28;20481;-79
2022/12/01 04:29:00;;;;;;;28.43;17.47;;;15.90;66.60;;;;;;5087111;28;20448;-77
2022/12/01 04:31:28;;;;;;;27.30;16.73;;;15.90;66.70;;;;;;5072969;28;20572;-77
2022/12/01 04:33:57;;;;;;;28.70;17.73;;;15.90;66.50;;;;;;5087855;28;20459;-78
2022/12/01 04:36:25;;;;;;;28.77;17.23;;;15.90;66.70;;;;;;5086886;28;20507;-80
2022/12/01 04:38:53;;;;;;;29.60;17.30;;;15.90;66.70;;;;;;5080827;28;20454;-80
2022/12/01 04:41:21;;;;;;;30.17;17.20;;;15.90;66.50;;;;;;5079125;28;20442;-80
2022/12/01 04:43:49;;;;;;;31.40;16.90;;;15.90;66.90;;;;;;5076901;28;20438;-80
2022/12/01 04:46:17;;;;;;;27.40;16.70;;;15.90;67.50;;;;;;5068358;28;20518;-79
2022/12/01 04:48:45;;;;;;;28.63;16.70;;;15.90;66.80;;;;;;5076570;28;20464;-78
2022/12/01 04:51:15;;;;;;;32.10;17.93;;;15.90;66.70;;;;;;5081639;28;20465;-78
2022/12/01 04:53:43;;;;;;;28.17;17.23;;;15.90;66.70;;;;;;5075221;28;20449;-79
2022/12/01 04:56:11;;;;;;;29.40;17.50;;;15.90;66.60;;;;;;5075740;28;20472;-79
2022/12/01 04:58:40;;;;;;;27.97;17.60;;;15.90;66.80;;;;;;5084157;28;20445;-78
2022/12/01 05:01:09;;;;;;;26.67;15.90;;;15.90;66.70;;;;;;5079166;28;20491;-80
2022/12/01 05:03:38;;;;;;;27.00;16.50;;;15.90;66.60;;;;;;5084948;28;20442;-80
2022/12/01 05:06:07;;;;;;;29.17;17.70;;;15.90;66.60;;;;;;5087221;28;20457;-80
2022/12/01 05:08:37;;;;;;;28.13;17.17;;;15.90;66.60;;;;;;5070083;28;20450;-79
2022/12/01 05:11:06;;;;;;;25.67;16.10;;;15.80;66.50;;;;;;5081405;28;20449;-78
2022/12/01 05:13:34;;;;;;;26.07;16.47;;;15.80;66.70;;;;;;5069303;28;20481;-78
2022/12/01 05:16:06;;;;;;;26.33;16.50;;;15.80;66.80;;;;;;5090176;28;20457;-78
2022/12/01 05:18:34;;;;;;;26.80;16.90;;;15.80;66.70;;;;;;5082502;28;20454;-80
2022/12/01 05:21:02;;;;;;;26.00;16.37;;;15.80;66.70;;;;;;5076692;28;20455;-78
2022/12/01 05:23:32;;;;;;;26.73;16.23;;;15.90;66.80;;;;;;5072714;28;20450;-79
2022/12/01 05:26:02;;;;;;;23.80;15.27;;;15.90;66.60;;;;;;5066954;28;20462;-79
2022/12/01 05:28:30;;;;;;;25.63;16.30;;;15.90;66.80;;;;;;5073014;28;20465;-80
2022/12/01 05:30:58;;;;;;;25.73;15.70;;;15.90;66.80;;;;;;5079691;28;20450;-79
2022/12/01 05:33:26;;;;;;;26.77;16.37;;;15.80;66.50;;;;;;5073304;28;20972;-80
2022/12/01 05:35:54;;;;;;;29.57;16.53;;;15.90;66.60;;;;;;5078728;28;20453;-80
2022/12/01 05:38:22;;;;;;;23.30;15.67;;;15.90;66.70;;;;;;5076003;28;20446;-79
2022/12/01 05:40:51;;;;;;;26.37;16.30;;;15.90;66.80;;;;;;5073374;28;20461;-80
2022/12/01 05:43:20;;;;;;;28.67;15.97;;;15.90;66.70;;;;;;5081544;28;20442;-79
2022/12/01 05:45:56;;;;;;;32.30;16.87;;;15.90;66.70;;;;;;5077862;28;20461;-80
2022/12/01 05:48:24;;;;;;;24.90;16.23;;;15.90;66.80;;;;;;5081426;28;20457;-79
2022/12/01 05:50:52;;;;;;;26.30;16.50;;;15.80;66.80;;;;;;5081714;28;21014;-80
2022/12/01 05:53:20;;;;;;;25.10;16.00;;;15.80;66.80;;;;;;5086659;28;20473;-79
2022/12/01 05:55:51;;;;;;;26.13;15.77;;;15.80;66.80;;;;;;5087539;28;20453;-81
2022/12/01 05:58:21;;;;;;;24.10;15.27;;;15.80;66.90;;;;;;5080465;28;20450;-79
2022/12/01 06:00:49;;;;;;;23.77;15.70;;;15.80;66.80;;;;;;5085708;28;20460;-80
2022/12/01 06:03:17;;;;;;;24.50;15.73;;;15.90;66.80;;;;;;5080034;28;20453;-80
2022/12/01 06:05:46;;;;;;;26.47;16.90;;;15.90;66.80;;;;;;5081073;28;20461;-80
2022/12/01 06:08:14;;;;;;;24.63;15.10;;;15.90;66.60;;;;;;5077739;28;20528;-79
2022/12/01 06:10:42;;;;;;;24.77;15.47;;;15.80;66.70;;;;;;5080342;28;20473;-80
2022/12/01 06:13:10;;;;;;;25.20;15.30;;;15.80;66.60;;;;;;5074828;28;20474;-79
2022/12/01 06:15:39;;;;;;;25.10;15.27;;;15.80;66.80;;;;;;5081684;28;20453;-80
2022/12/01 06:18:07;;;;;;;25.30;15.27;;;15.80;66.80;;;;;;5088001;28;20466;-80
2022/12/01 06:20:35;;;;;;;24.60;15.80;;;15.80;66.80;;;;;;5080744;28;20453;-80
2022/12/01 06:23:03;;;;;;;27.40;15.97;;;15.80;66.80;;;;;;5078213;28;20446;-79
2022/12/01 06:25:31;;;;;;;25.07;16.30;;;15.90;66.80;;;;;;5079151;28;20457;-80
2022/12/01 06:28:00;;;;;;;23.50;15.00;;;15.80;66.70;;;;;;5083871;28;20457;-80
2022/12/01 06:30:27;;;;;;;22.10;15.43;;;15.90;66.80;;;;;;5085656;28;20465;-80
2022/12/01 06:32:57;;;;;;;27.27;16.90;;;15.80;66.50;;;;;;5078198;28;20465;-80
2022/12/01 06:35:25;;;;;;;21.73;14.33;;;15.80;66.60;;;;;;5085097;28;20450;-79
2022/12/01 06:37:53;;;;;;;23.23;15.13;;;15.80;66.70;;;;;;5070704;28;20474;-79
2022/12/01 06:40:21;;;;;;;24.00;15.70;;;15.80;66.50;;;;;;5080120;28;20450;-79
2022/12/01 06:42:49;;;;;;;24.47;14.90;;;15.80;66.70;;;;;;5069173;28;20450;-79
2022/12/01 06:45:17;;;;;;;26.77;16.30;;;15.80;66.70;;;;;;5082141;28;20446;-79
2022/12/01 06:47:47;;;;;;;24.03;15.43;;;15.80;66.50;;;;;;5077273;28;20461;-79
2022/12/01 06:50:16;;;;;;;23.60;15.27;;;15.80;66.50;;;;;;5072725;28;20453;-79
2022/12/01 06:52:44;;;;;;;23.03;14.63;;;15.80;66.70;;;;;;5081524;28;20470;-79
2022/12/01 06:55:13;;;;;;;22.13;14.93;;;15.80;66.70;;;;;;5084261;28;20450;-79
2022/12/01 06:57:42;;;;;;;26.47;16.47;;;15.80;66.70;;;;;;5079899;28;20495;-79
2022/12/01 07:00:11;;;;;;;23.33;15.43;;;15.80;66.60;;;;;;5070959;28;20478;-79
2022/12/01 07:02:39;;;;;;;24.03;14.90;;;15.80;66.60;;;;;;5066074;28;20445;-79
2022/12/01 07:05:09;;;;;;;23.73;14.67;;;15.80;66.80;;;;;;5068266;28;20458;-79
2022/12/01 07:07:38;;;;;;;25.27;15.60;;;15.80;66.70;;;;;;5080918;28;20477;-80
2022/12/01 07:10:08;;;;;;;23.50;15.50;;;15.80;66.70;;;;;;5081976;28;20518;-80
2022/12/01 07:12:35;;;;;;;27.50;16.13;;;15.80;66.50;;;;;;5096124;28;20468;-80
2022/12/01 07:15:04;;;;;;;25.00;16.17;;;15.80;66.50;;;;;;5086976;28;20453;-79
2022/12/01 07:17:32;;;;;;;27.83;16.10;;;15.80;66.60;;;;;;5085573;28;20487;-80
2022/12/01 07:20:01;;;;;;;22.17;15.17;;;15.80;66.80;;;;;;5090616;28;20452;-80
2022/12/01 07:22:28;;;;;;;25.60;15.60;;;15.80;66.70;;;;;;5066759;28;20485;-79
2022/12/01 07:25:01;;;;;;;24.43;15.47;;;15.80;66.50;;;;;;5077295;28;20450;-78
2022/12/01 07:27:30;;;;;;;23.90;14.80;;;15.70;66.60;;;;;;5075144;28;20471;-77
2022/12/01 07:29:58;;;;;;;24.37;15.07;;;15.70;66.70;;;;;;5064621;28;20454;-77
2022/12/01 07:32:26;;;;;;;24.30;15.63;;;15.80;66.70;;;;;;5079058;28;20822;-77
2022/12/01 07:34:54;;;;;;;24.10;15.20;;;15.80;66.70;;;;;;5068859;28;20470;-78
2022/12/01 07:37:22;;;;;;;26.27;16.00;;;15.80;66.50;;;;;;5067012;28;20469;-77
2022/12/01 07:39:50;;;;;;;23.80;15.93;;;15.80;66.70;;;;;;5074353;28;20461;-77
2022/12/01 07:42:20;;;;;;;23.73;15.20;;;15.80;66.70;;;;;;5074910;28;20453;-77
2022/12/01 07:44:48;;;;;;;26.00;15.90;;;15.80;66.50;;;;;;5074278;28;20451;-77
2022/12/01 07:47:16;;;;;;;24.77;15.00;;;15.80;66.60;;;;;;5075286;28;20472;-78
2022/12/01 07:49:44;;;;;;;24.20;16.10;;;15.70;66.60;;;;;;5074758;28;20461;-77
2022/12/01 07:52:12;;;;;;;25.13;15.43;;;15.70;66.50;;;;;;5079713;28;20540;-77
2022/12/01 07:54:40;;;;;;;23.20;15.27;;;15.70;66.60;;;;;;5073823;28;20518;-77
2022/12/01 07:57:09;;;;;;;26.27;16.33;;;15.70;66.50;;;;;;5057343;28;20473;-77
2022/12/01 07:59:38;;;;;;;26.50;15.03;;;15.70;66.60;;;;;;5069388;28;20453;-76
2022/12/01 08:02:06;;;;;;;25.47;14.57;;;15.70;66.50;;;;;;5066341;28;20465;-77
2022/12/01 08:04:34;;;;;;;27.10;15.60;;;15.80;66.70;;;;;;5072765;28;20461;-77
2022/12/01 08:07:02;;;;;;;25.30;15.23;;;15.80;66.60;;;;;;5061652;28;20465;-77
2022/12/01 08:09:30;;;;;;;24.90;15.37;;;15.80;67.30;;;;;;5074068;28;20536;-78
2022/12/01 08:11:57;;;;;;;28.00;15.77;;;15.80;66.70;;;;;;5074061;28;20446;-76
2022/12/01 08:14:25;;;;;;;28.03;16.53;;;15.80;66.40;;;;;;5075171;28;20461;-77
2022/12/01 08:16:54;;;;;;;24.67;15.20;;;15.70;66.30;;;;;;5071664;28;20470;-77
2022/12/01 08:19:24;;;;;;;21.13;14.37;;;15.70;66.60;;;;;;5077949;28;20453;-78
2022/12/01 08:21:52;;;;;;;24.30;15.27;;;15.70;66.60;;;;;;5068247;28;20454;-77
2022/12/01 08:24:20;;;;;;;24.30;15.37;;;15.80;66.60;;;;;;5073453;28;20450;-77
2022/12/01 08:26:48;;;;;;;24.60;16.60;;;15.70;66.60;;;;;;5071974;28;20466;-77
2022/12/01 08:29:17;;;;;;;24.47;15.10;;;15.70;66.80;;;;;;5086548;28;20452;-78
2022/12/01 08:31:47;;;;;;;24.70;15.30;;;15.70;66.70;;;;;;5073727;28;20449;-78
2022/12/01 08:34:17;;;;;;;29.80;15.30;;;15.80;66.60;;;;;;5073391;28;20492;-76
2022/12/01 08:36:45;;;;;;;22.63;14.40;;;15.70;66.50;;;;;;5075410;28;20478;-77
2022/12/01 08:39:13;;;;;;;26.43;15.90;;;15.80;66.60;;;;;;5069325;28;20459;-78
2022/12/01 08:41:41;;;;;;;24.20;15.17;;;15.80;66.70;;;;;;5075763;28;20457;-79
2022/12/01 08:44:09;;;;;;;26.00;15.30;;;15.80;66.70;;;;;;5089103;28;20457;-78
2022/12/01 08:46:38;;;;;;;25.97;15.67;;;15.80;66.80;;;;;;5082925;28;20502;-79
2022/12/01 08:49:06;;;;;;;27.77;16.23;;;15.70;66.60;;;;;;5081739;28;20446;-79
2022/12/01 08:51:36;;;;;;;26.07;14.93;;;15.80;66.50;;;;;;5081788;28;20461;-79
2022/12/01 08:54:04;;;;;;;22.43;15.20;;;15.80;66.60;;;;;;5078824;28;20488;-78
2022/12/01 08:56:33;;;;;;;23.37;14.80;;;15.80;66.50;;;;;;5083022;28;20464;-79
2022/12/01 08:59:01;;;;;;;24.43;14.83;;;15.80;66.50;;;;;;5085082;28;20449;-79
2022/12/01 09:01:30;;;;;;;27.60;15.80;;;15.80;66.70;;;;;;5097585;28;20448;-79
2022/12/01 09:04:07;;;;;;;25.80;15.23;;;15.80;66.60;;;;;;5085681;28;20526;-79
2022/12/01 09:06:40;;;;;;;25.63;15.33;;;15.80;66.40;;;;;;5076267;28;20488;-80
2022/12/01 09:09:09;;;;;;;23.27;15.30;;;15.80;66.60;;;;;;5078179;28;20438;-78
2022/12/01 09:11:37;;;;;;;26.90;16.47;;;15.80;66.80;;;;;;5075078;28;20445;-78
2022/12/01 09:14:05;;;;;;;23.10;14.20;;;15.80;66.50;;;;;;5077734;28;20560;-80
2022/12/01 09:16:33;;;;;;;24.10;15.33;;;15.80;66.50;;;;;;5068399;28;20472;-79
2022/12/01 09:19:01;;;;;;;30.43;16.10;;;15.80;66.40;;;;;;5078105;28;20444;-79
2022/12/01 09:21:31;;;;;;;23.83;14.23;;;15.80;66.60;;;;;;5077290;28;20442;-78
2022/12/01 09:24:00;;;;;;;27.37;16.03;;;15.80;66.70;;;;;;5077404;28;20434;-78
2022/12/01 09:26:28;;;;;;;25.40;15.13;;;15.80;66.80;;;;;;5077742;28;20461;-79
2022/12/01 09:28:57;;;;;;;24.17;15.43;;;15.80;66.70;;;;;;5077975;28;20461;-78
2022/12/01 09:31:28;;;;;;;28.70;16.50;;;15.90;66.60;;;;;;5077443;28;20441;-79
2022/12/01 09:33:57;;;;;;;25.20;15.50;;;15.90;66.70;;;;;;5077098;28;20438;-78
2022/12/01 09:36:25;;;;;;;23.03;15.00;;;15.90;66.70;;;;;;5078067;28;20553;-78
2022/12/01 09:38:53;;;;;;;25.13;15.67;;;15.90;66.70;;;;;;5078470;28;20441;-79
2022/12/01 09:41:24;;;;;;;25.20;14.40;;;15.90;66.60;;;;;;5077634;28;20445;-78
2022/12/01 09:43:56;;;;;;;23.40;15.60;;;15.90;66.60;;;;;;5085423;28;20441;-79
2022/12/01 09:46:28;;;;;;;24.33;15.70;;;15.90;66.60;;;;;;5085421;28;20500;-80
2022/12/01 09:48:56;;;;;;;23.73;15.20;;;15.90;66.60;;;;;;5084375;28;20449;-79
2022/12/01 09:51:26;;;;;;;24.20;15.40;;;15.90;66.50;;;;;;5082850;28;20441;-80
2022/12/01 09:53:57;;;;;;;23.23;14.80;;;15.90;66.60;;;;;;5083256;28;20448;-79
2022/12/01 09:56:27;;;;;;;24.33;14.73;;;15.90;66.50;;;;;;5083012;28;20518;-79
2022/12/01 09:58:56;;;;;;;30.47;17.10;;;15.90;66.60;;;;;;5082898;28;20418;-80
2022/12/01 10:01:29;;;;;;;25.53;15.97;;;15.90;66.70;;;;;;5083461;28;20434;-80
2022/12/01 10:03:59;;;;;;;26.20;15.73;;;15.90;66.70;;;;;;5078275;28;20470;-80
2022/12/01 10:06:31;;;;;;;27.10;16.10;;;15.90;66.60;;;;;;5065714;28;20470;-79
2022/12/01 10:09:03;;;;;;;25.43;15.37;;;15.90;66.60;;;;;;5083151;28;20541;-79
2022/12/01 10:11:34;;;;;;;27.30;15.93;;;15.90;66.80;;;;;;5082497;28;20434;-79
2022/12/01 10:14:03;;;;;;;28.33;15.63;;;15.90;66.50;;;;;;5081724;28;20442;-79
2022/12/01 10:16:35;;;;;;;28.60;16.07;;;15.90;66.40;;;;;;5082349;28;20473;-79
2022/12/01 10:19:07;;;;;;;23.90;15.13;;;16.00;66.70;;;;;;5083251;28;20450;-80
2022/12/01 10:21:54;;;;;;;23.57;15.03;;;16.00;66.60;;;;;;5082837;28;20461;-80
2022/12/01 10:24:29;;;;;;;23.77;15.20;;;16.00;66.50;;;;;;5084299;28;20448;-80
2022/12/01 10:27:02;;;;;;;28.60;16.60;;;16.00;66.60;;;;;;5081235;28;20560;-79
2022/12/01 10:29:34;;;;;;;27.40;15.53;;;16.00;66.50;;;;;;5081379;28;20449;-79
2022/12/01 10:32:03;;;;;;;32.10;16.13;;;16.00;66.50;;;;;;5082418;28;20473;-80
2022/12/01 10:34:33;;;;;;;29.03;16.00;;;16.00;66.60;;;;;;5081972;28;20442;-79
2022/12/01 10:37:00;;;;;;;24.93;16.40;;;16.00;66.60;;;;;;5078568;28;20461;-80
2022/12/01 10:39:29;;;;;;;29.17;16.57;;;16.10;66.50;;;;;;5074639;28;20438;-80
2022/12/01 10:42:02;;;;;;;28.97;16.70;;;16.10;66.50;;;;;;5078331;28;20446;-78
2022/12/01 10:44:30;;;;;;;29.53;16.63;;;16.10;66.60;;;;;;5077276;28;20469;-79
2022/12/01 10:46:59;;;;;;;24.67;14.80;;;16.10;66.40;;;;;;5076860;28;20472;-80
2022/12/01 10:49:35;;;;;;;25.50;15.70;;;16.00;66.30;;;;;;5079281;28;20444;-81
2022/12/01 10:52:04;;;;;;;25.87;16.47;;;16.10;66.40;;;;;;5079816;28;20445;-79
2022/12/01 10:54:33;;;;;;;26.77;16.00;;;16.00;66.50;;;;;;5074459;28;20437;-79
2022/12/01 10:57:03;;;;;;;27.70;16.00;;;16.00;66.40;;;;;;5076284;28;20457;-79
2022/12/01 10:59:36;;;;;;;26.77;16.20;;;16.10;66.30;;;;;;5077389;28;20448;-79
2022/12/01 11:02:05;;;;;;;25.50;16.60;;;16.10;66.40;;;;;;5077102;28;20448;-79
2022/12/01 11:04:43;;;;;;;30.03;16.60;;;16.10;66.70;;;;;;5076775;28;20978;-79
2022/12/01 11:07:16;;;;;;;30.23;16.60;;;16.10;66.60;;;;;;5077409;28;20472;-79
2022/12/01 11:09:45;;;;;;;29.70;17.77;;;16.10;66.60;;;;;;5078227;28;20452;-80
2022/12/01 11:12:19;;;;;;;28.40;17.90;;;16.10;66.70;;;;;;5077380;28;20453;-80
2022/12/01 11:14:48;;;;;;;28.80;17.50;;;16.10;66.50;;;;;;5069626;28;20449;-79
2022/12/01 11:17:28;;;;;;;28.33;16.77;;;16.10;66.50;;;;;;5077369;28;20461;-79
2022/12/01 11:19:56;;;;;;;26.87;16.50;;;16.10;66.50;;;;;;5077339;28;20438;-80
2022/12/01 11:22:25;;;;;;;31.83;18.00;;;16.10;66.60;;;;;;5076903;28;20451;-80
2022/12/01 11:24:58;;;;;;;32.17;18.30;;;16.10;66.60;;;;;;5077288;28;20442;-79
2022/12/01 11:27:30;;;;;;;32.57;18.77;;;16.20;66.40;;;;;;5076731;28;20466;-79
2022/12/01 11:30:01;;;;;;;29.27;18.00;;;16.20;66.50;;;;;;5070030;28;20545;-79
2022/12/01 11:32:30;;;;;;;29.73;18.20;;;16.20;66.60;;;;;;5076060;28;20441;-79
2022/12/01 11:34:59;;;;;;;35.67;18.50;;;16.20;66.40;;;;;;5076361;28;20445;-79
2022/12/01 11:37:31;;;;;;;28.50;18.03;;;16.30;66.50;;;;;;5076184;28;20466;-79
2022/12/01 11:40:06;;;;;;;30.73;18.63;;;16.30;66.50;;;;;;5079243;28;20452;-79
2022/12/01 11:42:36;;;;;;;32.40;18.43;;;16.30;66.60;;;;;;5079924;28;20433;-79
2022/12/01 11:45:08;;;;;;;34.20;18.43;;;16.30;66.70;;;;;;5078050;28;20458;-79
2022/12/01 11:47:36;;;;;;;30.87;19.20;;;16.30;66.40;;;;;;5079983;28;20469;-78
2022/12/01 11:50:22;;;;;;;27.60;16.50;;;16.30;66.50;;;;;;5078979;28;20448;-78
2022/12/01 11:52:51;;;;;;;33.40;18.80;;;16.40;66.60;;;;;;5078454;28;20456;-79
2022/12/01 11:55:23;;;;;;;28.83;18.00;;;16.40;66.40;;;;;;5079276;28;20473;-79
2022/12/01 11:57:53;;;;;;;33.23;17.20;;;16.50;66.60;;;;;;5078934;28;20462;-80
2022/12/01 12:00:23;;;;;;;31.73;18.50;;;16.50;66.30;;;;;;5079458;28;20449;-78
2022/12/01 12:03:08;;;;;;;32.03;18.10;;;16.40;66.20;;;;;;5078663;28;20456;-79
2022/12/01 12:05:44;;;;;;;31.73;17.73;;;16.50;66.50;;;;;;5079273;28;20469;-80
2022/12/01 12:08:19;;;;;;;30.47;18.30;;;16.50;66.30;;;;;;5078465;28;20465;-79
2022/12/01 12:10:51;;;;;;;28.70;17.10;;;16.40;66.40;;;;;;5079413;28;20448;-80
2022/12/01 12:13:47;;;;;;;31.10;18.50;;;16.50;66.30;;;;;;5079152;28;20452;-79
2022/12/01 12:16:18;;;;;;;31.60;18.63;;;16.50;66.30;;;;;;5069153;28;20573;-79
2022/12/01 12:19:04;;;;;;;29.40;18.27;;;16.40;66.50;;;;;;5076806;28;20454;-79
2022/12/01 12:21:34;;;;;;;28.97;18.17;;;16.40;66.30;;;;;;5074363;28;20445;-79
2022/12/01 12:24:22;;;;;;;31.57;18.53;;;16.40;66.60;;;;;;5073983;28;20457;-78
2022/12/01 12:26:52;;;;;;;29.73;17.97;;;16.40;66.50;;;;;;5074210;28;20489;-78
2022/12/01 12:29:31;;;;;;;29.50;18.30;;;16.40;66.60;;;;;;5074403;28;20441;-79
2022/12/01 12:32:05;;;;;;;34.97;19.70;;;16.50;66.40;;;;;;5074256;28;20430;-78
2022/12/01 12:34:43;;;;;;;32.60;19.10;;;16.50;66.40;;;;;;5074689;28;20437;-78
2022/12/01 12:37:19;;;;;;;32.03;19.30;;;16.50;66.40;;;;;;5065458;28;20470;-79
2022/12/01 12:40:17;;;;;;;28.97;18.23;;;16.40;66.40;;;;;;5067201;28;20433;-79
2022/12/01 12:42:50;;;;;;;33.10;19.57;;;16.50;66.40;;;;;;5073169;28;20473;-76
2022/12/01 12:45:24;;;;;;;30.47;18.70;;;16.40;67.10;;;;;;5073435;28;20430;-79
2022/12/01 12:48:03;;;;;;;31.50;19.63;;;16.50;66.60;;;;;;5076224;28;20469;-76